createdAt,value
2022-11-21T00:00:01.014Z,99278.69
2022-11-21T00:01:27.237Z,99274.09
2022-11-21T00:02:29.419Z,99270.56
2022-11-21T00:03:31.604Z,99270.56
2022-11-21T00:04:33.943Z,99268.69
2022-11-21T00:05:40.006Z,99270.38
2022-11-21T00:06:42.311Z,99263.28
2022-11-21T00:07:46.176Z,99259.53
2022-11-21T00:08:48.428Z,99257.69
2022-11-21T00:09:53.409Z,99259.31
2022-11-21T00:11:01.762Z,99246.63
2022-11-21T00:12:04.105Z,99245.78
2022-11-21T00:13:07.802Z,99236.63
2022-11-21T00:14:10.069Z,99239.53
2022-11-21T00:15:12.335Z,99238.50
2022-11-21T00:16:16.202Z,99237.47
2022-11-21T00:17:18.984Z,99241.81
2022-11-21T00:18:21.193Z,99235.78
2022-11-21T00:19:23.354Z,99227.47
2022-11-21T00:20:25.574Z,99216.63
2022-11-21T00:21:27.761Z,99214.56
2022-11-21T00:22:31.855Z,99209.13
2022-11-21T00:23:34.237Z,99223.50
2022-11-21T00:24:36.520Z,99217.25
2022-11-21T00:25:39.455Z,99213.28
2022-11-21T00:26:41.740Z,99209.97
2022-11-21T00:27:43.976Z,99206.22
2022-11-21T00:28:46.309Z,99201.84
2022-11-21T00:29:48.489Z,99205.38
2022-11-21T00:30:50.670Z,99206.00
2022-11-21T00:31:52.863Z,99197.66
2022-11-21T00:32:55.167Z,99199.53
2022-11-21T00:33:57.621Z,99190.56
2022-11-21T00:34:59.925Z,99191.59
2022-11-21T00:36:09.237Z,99191.41
2022-11-21T00:37:11.499Z,99186.00
2022-11-21T00:38:13.912Z,99188.50
2022-11-21T00:39:16.121Z,99172.25
2022-11-21T00:40:18.541Z,99169.53
2022-11-21T00:41:20.749Z,99170.34
2022-11-21T00:42:22.926Z,99164.13
2022-11-21T00:43:25.235Z,99168.50
2022-11-21T00:44:27.725Z,99169.09
2022-11-21T00:45:30.139Z,99159.13
2022-11-21T00:46:32.549Z,99151.00
2022-11-21T00:47:34.754Z,99157.44
2022-11-21T00:48:36.972Z,99154.53
2022-11-21T00:49:39.141Z,99143.47
2022-11-21T00:50:41.346Z,99146.19
2022-11-21T00:51:43.989Z,99142.44
2022-11-21T00:52:46.277Z,99135.97
2022-11-21T00:53:48.597Z,99138.69
2022-11-21T00:54:50.855Z,99139.72
2022-11-21T00:55:53.177Z,99139.50
2022-11-21T00:56:55.397Z,99135.75
2022-11-21T00:57:57.684Z,99135.75
2022-11-21T00:59:00.051Z,99130.56
2022-11-21T01:00:02.254Z,99134.09
2022-11-21T01:01:06.101Z,99131.38
2022-11-21T01:02:10.630Z,99123.88
2022-11-21T01:03:12.951Z,99121.19
2022-11-21T01:04:15.177Z,99125.56
2022-11-21T01:05:17.544Z,99123.66
2022-11-21T01:06:19.980Z,99122.63
2022-11-21T01:07:22.230Z,99119.06
2022-11-21T01:08:24.515Z,99113.66
2022-11-21T01:09:28.732Z,99108.03
2022-11-21T01:10:31.156Z,99096.34
2022-11-21T01:11:33.838Z,99103.22
2022-11-21T01:12:36.056Z,99088.66
2022-11-21T01:13:38.884Z,99091.13
2022-11-21T01:14:41.113Z,99087.59
2022-11-21T01:15:43.382Z,99077.81
2022-11-21T01:16:45.681Z,99084.91
2022-11-21T01:17:47.954Z,99081.13
2022-11-21T01:18:50.688Z,99083.63
2022-11-21T01:19:52.888Z,99080.94
2022-11-21T01:20:55.112Z,99069.88
2022-11-21T01:21:57.395Z,99075.28
2022-11-21T01:22:59.783Z,99074.25
2022-11-21T01:24:02.974Z,99073.19
2022-11-21T01:25:05.675Z,99072.38
2022-11-21T01:26:12.276Z,99071.09
2022-11-21T01:27:14.600Z,99063.19
2022-11-21T01:28:16.864Z,99064.88
2022-11-21T01:29:19.200Z,99063.78
2022-11-21T01:30:21.438Z,99064.44
2022-11-21T01:31:25.688Z,99063.38
2022-11-21T01:32:27.945Z,99065.06
2022-11-21T01:33:30.139Z,99066.91
2022-11-21T01:34:32.385Z,99061.28
2022-11-21T01:35:34.598Z,99059.41
2022-11-21T01:36:37.884Z,99061.91
2022-11-21T01:37:40.089Z,99062.72
2022-11-21T01:38:47.742Z,99061.69
2022-11-21T01:39:50.390Z,99057.13
2022-11-21T01:40:52.565Z,99054.19
2022-11-21T01:41:54.941Z,99060.41
2022-11-21T01:43:03.563Z,99065.63
2022-11-21T01:44:25.472Z,99051.84
2022-11-21T01:45:56.451Z,99049.34
2022-11-21T01:46:58.696Z,99049.34
2022-11-21T01:48:00.902Z,99052.69
2022-11-21T01:49:08.136Z,99050.81
2022-11-21T01:50:12.991Z,99047.88
2022-11-21T01:51:21.491Z,99049.78
2022-11-21T01:52:29.195Z,99044.97
2022-11-21T01:53:32.240Z,99047.47
2022-11-21T01:54:45.653Z,99047.25
2022-11-21T01:55:49.088Z,99042.63
2022-11-21T01:57:03.861Z,99046.19
2022-11-21T01:58:06.178Z,99052.44
2022-11-21T01:59:11.641Z,99045.97
2022-11-21T02:00:21.751Z,99042.44
2022-11-21T02:01:24.636Z,99042.22
2022-11-21T02:02:33.776Z,99031.16
2022-11-21T02:03:41.864Z,99034.69
2022-11-21T02:04:45.022Z,99034.50
2022-11-21T02:05:47.613Z,99036.13
2022-11-21T02:06:49.899Z,99023.22
2022-11-21T02:07:57.376Z,99019.47
2022-11-21T02:09:01.418Z,99028.63
2022-11-21T02:10:08.117Z,99028.63
2022-11-21T02:11:34.966Z,99025.09
2022-11-21T02:12:53.836Z,99013.41
2022-11-21T02:13:56.458Z,99026.72
2022-11-21T02:14:59.542Z,99027.38
2022-11-21T02:16:02.732Z,99021.72
2022-11-21T02:17:08.375Z,99026.09
2022-11-21T02:18:12.498Z,99017.97
2022-11-21T02:19:27.519Z,99017.97
2022-11-21T02:20:30.510Z,99021.28
2022-11-21T02:21:49.901Z,99021.06
2022-11-21T02:22:55.024Z,99025.44
2022-11-21T02:24:29.950Z,99019.59
2022-11-21T02:25:37.900Z,99023.13
2022-11-21T02:26:41.052Z,99030.44
2022-11-21T02:27:43.462Z,99015.84
2022-11-21T02:28:45.821Z,99016.44
2022-11-21T02:29:48.095Z,99008.53
2022-11-21T02:30:50.877Z,99012.66
2022-11-21T02:31:53.823Z,99009.72
2022-11-21T02:32:56.081Z,99009.72
2022-11-21T02:33:58.255Z,99012.22
2022-11-21T02:35:00.536Z,99009.31
2022-11-21T02:36:03.055Z,99009.31
2022-11-21T02:37:05.239Z,99010.75
2022-11-21T02:38:38.092Z,99006.16
2022-11-21T02:39:40.663Z,99004.50
2022-11-21T02:40:51.577Z,98998.63
2022-11-21T02:42:08.886Z,99001.13
2022-11-21T02:43:23.204Z,98999.22
2022-11-21T02:44:36.063Z,98991.91
2022-11-21T02:45:40.475Z,98989.81
2022-11-21T02:47:08.402Z,98987.94
2022-11-21T02:48:11.533Z,98984.19
2022-11-21T02:49:16.934Z,98989.38
2022-11-21T02:50:33.314Z,98992.72
2022-11-21T02:51:35.572Z,98993.53
2022-11-21T02:52:37.824Z,98994.59
2022-11-21T02:53:39.996Z,98990.81
2022-11-21T02:54:42.397Z,98989.78
2022-11-21T02:55:45.140Z,98984.34
2022-11-21T02:56:47.350Z,98982.25
2022-11-21T02:57:50.218Z,98984.75
2022-11-21T02:58:52.427Z,98981.81
2022-11-21T02:59:54.666Z,98981.56
2022-11-21T03:00:56.983Z,98979.72
2022-11-21T03:01:59.941Z,98973.25
2022-11-21T03:03:03.024Z,98973.00
2022-11-21T03:04:05.201Z,98971.75
2022-11-21T03:05:11.760Z,98979.66
2022-11-21T03:06:14.030Z,98975.03
2022-11-21T03:07:16.335Z,98979.41
2022-11-21T03:08:18.801Z,98973.75
2022-11-21T03:09:21.052Z,98967.53
2022-11-21T03:10:25.028Z,98975.22
2022-11-21T03:11:27.256Z,98975.81
2022-11-21T03:12:29.417Z,98971.22
2022-11-21T03:13:31.829Z,98968.06
2022-11-21T03:14:37.180Z,98968.06
2022-11-21T03:15:39.353Z,98969.72
2022-11-21T03:16:41.583Z,98972.44
2022-11-21T03:17:43.886Z,98975.75
2022-11-21T03:18:46.144Z,98963.84
2022-11-21T03:19:48.389Z,98964.69
2022-11-21T03:20:50.673Z,98969.06
2022-11-21T03:21:52.894Z,98969.69
2022-11-21T03:22:55.217Z,98970.50
2022-11-21T03:23:57.495Z,98968.38
2022-11-21T03:24:59.758Z,98963.78
2022-11-21T03:26:01.946Z,98968.19
2022-11-21T03:27:04.303Z,98958.94
2022-11-21T03:28:07.305Z,98963.34
2022-11-21T03:29:09.550Z,98959.56
2022-11-21T03:30:12.449Z,98959.34
2022-11-21T03:31:14.641Z,98963.72
2022-11-21T03:32:16.899Z,98952.63
2022-11-21T03:33:19.098Z,98948.06
2022-11-21T03:34:21.386Z,98955.97
2022-11-21T03:35:24.654Z,98946.78
2022-11-21T03:36:26.943Z,98955.50
2022-11-21T03:37:29.162Z,98958.22
2022-11-21T03:38:31.413Z,98951.75
2022-11-21T03:39:33.895Z,98947.97
2022-11-21T03:40:36.093Z,98947.97
2022-11-21T03:41:38.393Z,98946.09
2022-11-21T03:42:40.621Z,98943.13
2022-11-21T03:43:42.849Z,98942.09
2022-11-21T03:44:45.121Z,98946.47
2022-11-21T03:45:48.125Z,98941.03
2022-11-21T03:46:50.405Z,98943.53
2022-11-21T03:47:52.663Z,98947.09
2022-11-21T03:48:55.192Z,98933.88
2022-11-21T03:49:57.372Z,98935.53
2022-11-21T03:50:59.608Z,98930.91
2022-11-21T03:52:01.782Z,98930.09
2022-11-21T03:53:03.962Z,98928.00
2022-11-21T03:54:06.704Z,98933.19
2022-11-21T03:55:09.159Z,98927.75
2022-11-21T03:56:11.668Z,98922.91
2022-11-21T03:57:13.872Z,98931.06
2022-11-21T03:58:16.101Z,98921.44
2022-11-21T03:59:18.293Z,98922.25
2022-11-21T04:00:20.518Z,98933.13
2022-11-21T04:01:23.366Z,98929.34
2022-11-21T04:02:25.562Z,98920.97
2022-11-21T04:03:27.738Z,98918.25
2022-11-21T04:04:30.291Z,98924.31
2022-11-21T04:05:32.657Z,98913.44
2022-11-21T04:06:34.903Z,98914.88
2022-11-21T04:07:37.187Z,98919.44
2022-11-21T04:08:40.398Z,98911.91
2022-11-21T04:09:42.672Z,98912.75
2022-11-21T04:10:48.585Z,98912.50
2022-11-21T04:11:50.878Z,98912.50
2022-11-21T04:12:53.147Z,98910.63
2022-11-21T04:13:55.460Z,98913.13
2022-11-21T04:14:57.703Z,98911.22
2022-11-21T04:15:59.946Z,98918.31
2022-11-21T04:17:02.163Z,98908.25
2022-11-21T04:18:04.391Z,98914.53
2022-11-21T04:19:06.645Z,98916.22
2022-11-21T04:20:10.226Z,98917.84
2022-11-21T04:21:12.553Z,98914.94
2022-11-21T04:22:14.721Z,98914.09
2022-11-21T04:23:16.911Z,98915.75
2022-11-21T04:24:19.216Z,98913.66
2022-11-21T04:25:21.377Z,98912.78
2022-11-21T04:26:23.590Z,98907.97
2022-11-21T04:27:25.819Z,98911.50
2022-11-21T04:28:28.013Z,98914.00
2022-11-21T04:29:30.207Z,98914.00
2022-11-21T04:30:34.267Z,98918.38
2022-11-21T04:31:36.863Z,98907.50
2022-11-21T04:32:39.099Z,98907.28
2022-11-21T04:33:41.287Z,98903.50
2022-11-21T04:34:43.568Z,98909.78
2022-11-21T04:35:46.957Z,98902.44
2022-11-21T04:36:49.192Z,98913.09
2022-11-21T04:37:52.142Z,98905.16
2022-11-21T04:38:54.410Z,98902.44
2022-11-21T04:39:56.564Z,98906.59
2022-11-21T04:40:58.764Z,98912.03
2022-11-21T04:42:00.984Z,98906.59
2022-11-21T04:43:03.634Z,98911.78
2022-11-21T04:44:05.939Z,98904.47
2022-11-21T04:45:08.905Z,98901.53
2022-11-21T04:46:11.149Z,98900.44
2022-11-21T04:47:15.881Z,98898.59
2022-11-21T04:48:18.116Z,98897.75
2022-11-21T04:49:20.302Z,98897.53
2022-11-21T04:50:26.113Z,98900.00
2022-11-21T04:51:28.339Z,98897.28
2022-11-21T04:52:30.928Z,98900.59
2022-11-21T04:53:34.617Z,98897.66
2022-11-21T04:54:39.594Z,98890.34
2022-11-21T04:55:41.841Z,98890.09
2022-11-21T04:56:44.147Z,98892.81
2022-11-21T04:57:46.501Z,98896.97
2022-11-21T04:58:52.916Z,98898.63
2022-11-21T04:59:55.844Z,98897.56
2022-11-21T05:00:58.122Z,98889.41
2022-11-21T05:02:00.422Z,98890.00
2022-11-21T05:03:06.233Z,98896.03
2022-11-21T05:04:08.446Z,98890.59
2022-11-21T05:05:11.601Z,98893.09
2022-11-21T05:06:13.880Z,98890.13
2022-11-21T05:07:16.649Z,98889.31
2022-11-21T05:08:18.837Z,98888.25
2022-11-21T05:09:21.138Z,98894.50
2022-11-21T05:10:23.558Z,98894.28
2022-11-21T05:11:44.560Z,98888.03
2022-11-21T05:13:05.208Z,98884.84
2022-11-21T05:14:07.524Z,98894.66
2022-11-21T05:15:10.072Z,98891.69
2022-11-21T05:16:12.380Z,98893.59
2022-11-21T05:17:14.623Z,98892.53
2022-11-21T05:18:17.037Z,98887.91
2022-11-21T05:19:19.885Z,98896.69
2022-11-21T05:20:22.165Z,98886.88
2022-11-21T05:21:24.447Z,98898.31
2022-11-21T05:22:26.765Z,98898.31
2022-11-21T05:23:28.932Z,98893.72
2022-11-21T05:24:31.182Z,98896.22
2022-11-21T05:25:35.626Z,98893.50
2022-11-21T05:26:38.254Z,98884.28
2022-11-21T05:27:40.436Z,98897.63
2022-11-21T05:28:42.984Z,98891.38
2022-11-21T05:29:45.670Z,98893.00
2022-11-21T05:30:47.896Z,98897.41
2022-11-21T05:31:50.149Z,98909.94
2022-11-21T05:32:52.399Z,98900.72
2022-11-21T05:33:54.781Z,98900.72
2022-11-21T05:34:56.931Z,98901.53
2022-11-21T05:35:59.363Z,98905.06
2022-11-21T05:37:01.796Z,98905.94
2022-11-21T05:38:04.068Z,98904.03
2022-11-21T05:39:06.476Z,98905.69
2022-11-21T05:40:09.180Z,98907.59
2022-11-21T05:41:11.451Z,98902.97
2022-11-21T05:42:13.672Z,98904.63
2022-11-21T05:43:34.319Z,98908.16
2022-11-21T05:44:36.588Z,98905.69
2022-11-21T05:45:39.270Z,98909.22
2022-11-21T05:46:41.616Z,98914.66
2022-11-21T05:47:43.960Z,98911.94
2022-11-21T05:48:48.009Z,98911.94
2022-11-21T05:49:50.286Z,98925.34
2022-11-21T05:50:52.520Z,98918.22
2022-11-21T05:51:54.718Z,98925.34
2022-11-21T05:53:02.508Z,98919.03
2022-11-21T05:54:05.045Z,98922.63
2022-11-21T05:55:07.711Z,98919.91
2022-11-21T05:56:15.513Z,98916.31
2022-11-21T05:57:17.723Z,98925.34
2022-11-21T05:58:20.016Z,98922.63
2022-11-21T05:59:22.573Z,98925.34
2022-11-21T06:00:24.853Z,98930.78
2022-11-21T06:01:45.828Z,98929.94
2022-11-21T06:03:06.548Z,98925.34
2022-11-21T06:04:10.092Z,98936.22
2022-11-21T06:05:12.332Z,98940.56
2022-11-21T06:06:19.685Z,98940.56
2022-11-21T06:07:24.526Z,98935.38
2022-11-21T06:08:30.511Z,98932.66
2022-11-21T06:09:32.775Z,98929.94
2022-11-21T06:10:35.051Z,98942.69
2022-11-21T06:11:37.317Z,98936.22
2022-11-21T06:12:39.629Z,98940.81
2022-11-21T06:13:42.440Z,98936.22
2022-11-21T06:14:44.671Z,98945.44
2022-11-21T06:15:54.170Z,98942.69
2022-11-21T06:16:56.371Z,98952.72
2022-11-21T06:18:00.729Z,98948.97
2022-11-21T06:19:02.963Z,98950.88
2022-11-21T06:20:06.703Z,98953.59
2022-11-21T06:21:13.141Z,98956.06
2022-11-21T06:22:15.391Z,98962.56
2022-11-21T06:23:17.654Z,98960.69
2022-11-21T06:24:22.286Z,98972.38
2022-11-21T06:25:24.763Z,98965.28
2022-11-21T06:26:27.853Z,98968.84
2022-11-21T06:27:30.919Z,98970.72
2022-11-21T06:28:36.185Z,98974.28
2022-11-21T06:29:38.420Z,98976.16
2022-11-21T06:30:40.790Z,98978.88
2022-11-21T06:31:43.017Z,98977.00
2022-11-21T06:32:45.188Z,98979.72
2022-11-21T06:33:51.362Z,98985.97
2022-11-21T06:34:53.583Z,98988.69
2022-11-21T06:35:55.786Z,98997.66
2022-11-21T06:36:58.067Z,98996.84
2022-11-21T06:38:00.298Z,98994.94
2022-11-21T06:39:02.509Z,98998.75
2022-11-21T06:40:05.271Z,99004.19
2022-11-21T06:41:12.423Z,99001.25
2022-11-21T06:42:14.687Z,99001.25
2022-11-21T06:43:16.905Z,99005.00
2022-11-21T06:44:19.123Z,99005.84
2022-11-21T06:45:21.337Z,99006.06
2022-11-21T06:46:23.612Z,99014.00
2022-11-21T06:47:25.858Z,99012.94
2022-11-21T06:48:28.030Z,99012.34
2022-11-21T06:49:30.377Z,99017.56
2022-11-21T06:50:32.617Z,99014.00
2022-11-21T06:51:34.836Z,99014.84
2022-11-21T06:52:37.163Z,99028.66
2022-11-21T06:53:39.392Z,99026.78
2022-11-21T06:54:41.932Z,99022.38
2022-11-21T06:55:44.128Z,99028.66
2022-11-21T06:56:46.355Z,99037.66
2022-11-21T06:57:48.602Z,99030.53
2022-11-21T06:58:50.848Z,99031.59
2022-11-21T06:59:53.032Z,99036.84
2022-11-21T07:00:55.709Z,99035.16
2022-11-21T07:01:57.952Z,99037.88
2022-11-21T07:03:03.354Z,99046.84
2022-11-21T07:04:05.839Z,99046.03
2022-11-21T07:05:08.408Z,99041.41
2022-11-21T07:06:10.744Z,99048.75
2022-11-21T07:07:12.949Z,99066.75
2022-11-21T07:08:15.183Z,99055.88
2022-11-21T07:09:32.755Z,99058.59
2022-11-21T07:10:36.155Z,99066.75
2022-11-21T07:11:38.404Z,99071.34
2022-11-21T07:12:59.173Z,99068.63
2022-11-21T07:14:06.245Z,99077.63
2022-11-21T07:15:11.475Z,99076.78
2022-11-21T07:16:16.616Z,99078.69
2022-11-21T07:17:18.791Z,99081.63
2022-11-21T07:18:22.465Z,99081.41
2022-11-21T07:19:24.769Z,99093.31
2022-11-21T07:20:26.996Z,99101.47
2022-11-21T07:21:29.206Z,99101.47
2022-11-21T07:22:31.413Z,99106.91
2022-11-21T07:23:34.497Z,99105.88
2022-11-21T07:24:36.693Z,99108.59
2022-11-21T07:25:42.579Z,99113.19
2022-11-21T07:26:44.846Z,99115.91
2022-11-21T07:27:47.124Z,99115.31
2022-11-21T07:28:49.359Z,99124.28
2022-11-21T07:29:52.345Z,99122.84
2022-11-21T07:30:57.177Z,99126.84
2022-11-21T07:31:59.334Z,99131.72
2022-11-21T07:33:04.431Z,99125.41
2022-11-21T07:34:06.615Z,99126.50
2022-11-21T07:35:09.344Z,99127.31
2022-11-21T07:36:12.885Z,99131.09
2022-11-21T07:37:15.081Z,99126.94
2022-11-21T07:38:17.471Z,99141.59
2022-11-21T07:39:19.671Z,99139.94
2022-11-21T07:40:22.083Z,99143.94
2022-11-21T07:41:24.278Z,99144.16
2022-11-21T07:42:26.456Z,99147.72
2022-11-21T07:43:31.019Z,99152.31
2022-11-21T07:44:33.215Z,99156.09
2022-11-21T07:45:35.439Z,99147.09
2022-11-21T07:46:38.550Z,99160.91
2022-11-21T07:47:41.330Z,99160.09
2022-11-21T07:48:43.507Z,99158.44
2022-11-21T07:49:45.783Z,99169.53
2022-11-21T07:50:48.069Z,99165.97
2022-11-21T07:51:50.571Z,99167.88
2022-11-21T07:52:57.849Z,99173.53
2022-11-21T07:54:00.074Z,99166.44
2022-11-21T07:55:05.920Z,99175.63
2022-11-21T07:56:10.817Z,99178.34
2022-11-21T07:57:12.991Z,99180.47
2022-11-21T07:58:16.746Z,99186.13
2022-11-21T07:59:19.393Z,99177.38
2022-11-21T08:00:22.717Z,99186.34
2022-11-21T08:01:24.959Z,99195.53
2022-11-21T08:02:31.845Z,99196.81
2022-11-21T08:03:35.141Z,99200.00
2022-11-21T08:04:37.341Z,99196.47
2022-11-21T08:05:44.510Z,99197.50
2022-11-21T08:06:46.959Z,99207.75
2022-11-21T08:07:49.421Z,99206.09
2022-11-21T08:08:55.121Z,99201.09
2022-11-21T08:09:57.500Z,99208.03
2022-11-21T08:11:08.260Z,99208.28
2022-11-21T08:12:11.331Z,99215.00
2022-11-21T08:13:14.672Z,99208.69
2022-11-21T08:14:16.894Z,99220.84
2022-11-21T08:15:19.084Z,99220.03
2022-11-21T08:16:22.918Z,99212.09
2022-11-21T08:17:28.015Z,99211.25
2022-11-21T08:18:30.254Z,99216.09
2022-11-21T08:19:32.785Z,99217.13
2022-11-21T08:20:34.981Z,99223.84
2022-11-21T08:21:37.239Z,99220.50
2022-11-21T08:22:40.983Z,99228.06
2022-11-21T08:23:43.151Z,99220.94
2022-11-21T08:24:48.315Z,99230.16
2022-11-21T08:25:52.004Z,99233.09
2022-11-21T08:26:54.347Z,99233.09
2022-11-21T08:27:57.779Z,99233.53
2022-11-21T08:29:00.622Z,99233.75
2022-11-21T08:30:03.277Z,99243.78
2022-11-21T08:31:06.527Z,99237.53
2022-11-21T08:32:08.709Z,99250.25
2022-11-21T08:33:10.909Z,99244.44
2022-11-21T08:34:14.712Z,99251.53
2022-11-21T08:35:17.337Z,99252.59
2022-11-21T08:36:19.533Z,99249.03
2022-11-21T08:37:21.903Z,99255.50
2022-11-21T08:38:24.553Z,99260.13
2022-11-21T08:39:28.415Z,99264.94
2022-11-21T08:40:32.253Z,99270.34
2022-11-21T08:41:53.431Z,99268.72
2022-11-21T08:43:00.044Z,99274.16
2022-11-21T08:44:02.556Z,99273.28
2022-11-21T08:45:06.216Z,99268.72
2022-11-21T08:46:08.541Z,99278.94
2022-11-21T08:47:10.860Z,99278.94
2022-11-21T08:48:14.235Z,99286.28
2022-11-21T08:49:16.531Z,99289.00
2022-11-21T08:50:18.954Z,99289.00
2022-11-21T08:51:21.611Z,99288.38
2022-11-21T08:52:24.261Z,99287.53
2022-11-21T08:53:26.483Z,99288.38
2022-11-21T08:54:29.040Z,99292.97
2022-11-21T08:55:31.490Z,99295.06
2022-11-21T08:56:33.665Z,99295.06
2022-11-21T08:57:40.160Z,99284.19
2022-11-21T08:58:42.469Z,99297.78
2022-11-21T08:59:44.648Z,99290.47
2022-11-21T09:00:47.017Z,99295.91
2022-11-21T09:01:49.246Z,99293.19
2022-11-21T09:02:52.275Z,99294.00
2022-11-21T09:03:54.449Z,99296.09
2022-11-21T09:04:56.606Z,99291.53
2022-11-21T09:06:02.729Z,99291.53
2022-11-21T09:07:05.159Z,99293.38
2022-11-21T09:08:07.422Z,99292.56
2022-11-21T09:09:09.664Z,99293.38
2022-11-21T09:10:11.922Z,99291.75
2022-11-21T09:11:14.129Z,99291.94
2022-11-21T09:12:16.351Z,99301.53
2022-11-21T09:13:19.554Z,99298.22
2022-11-21T09:14:40.511Z,99306.38
2022-11-21T09:16:01.827Z,99300.09
2022-11-21T09:17:22.957Z,99300.31
2022-11-21T09:18:25.203Z,99301.97
2022-11-21T09:19:27.665Z,99305.72
2022-11-21T09:20:31.409Z,99312.00
2022-11-21T09:21:33.657Z,99304.06
2022-11-21T09:22:35.955Z,99307.84
2022-11-21T09:23:38.245Z,99305.13
2022-11-21T09:24:41.578Z,99307.84
2022-11-21T09:25:44.297Z,99308.91
2022-11-21T09:26:49.716Z,99320.56
2022-11-21T09:27:51.957Z,99312.44
2022-11-21T09:28:54.477Z,99314.31
2022-11-21T09:29:56.692Z,99318.91
2022-11-21T09:30:59.187Z,99318.91
2022-11-21T09:32:01.583Z,99321.44
2022-11-21T09:33:12.715Z,99320.34
2022-11-21T09:34:15.008Z,99324.16
2022-11-21T09:35:17.235Z,99320.16
2022-11-21T09:36:19.654Z,99323.69
2022-11-21T09:37:21.884Z,99320.34
2022-11-21T09:38:24.551Z,99323.91
2022-11-21T09:39:26.978Z,99329.34
2022-11-21T09:40:31.242Z,99327.47
2022-11-21T09:42:02.844Z,99333.75
2022-11-21T09:43:17.049Z,99342.47
2022-11-21T09:44:56.479Z,99337.06
2022-11-21T09:46:06.034Z,99338.72
2022-11-21T09:47:28.269Z,99333.50
2022-11-21T09:48:45.705Z,99337.06
2022-11-21T09:50:10.500Z,99337.91
2022-11-21T09:51:16.613Z,99338.09
2022-11-21T09:52:23.095Z,99348.75
2022-11-21T09:53:31.377Z,99330.81
2022-11-21T09:54:36.702Z,99340.63
2022-11-21T09:55:52.276Z,99337.91
2022-11-21T09:56:56.253Z,99333.50
2022-11-21T09:58:03.553Z,99336.22
2022-11-21T09:59:26.053Z,99338.72
2022-11-21T10:00:28.318Z,99342.47
2022-11-21T10:01:31.112Z,99343.34
2022-11-21T10:02:34.018Z,99353.13
2022-11-21T10:03:42.916Z,99352.09
2022-11-21T10:04:47.206Z,99350.41
2022-11-21T10:05:58.982Z,99355.66
2022-11-21T10:07:07.631Z,99352.94
2022-11-21T10:08:43.170Z,99354.78
2022-11-21T10:10:09.376Z,99361.91
2022-11-21T10:11:31.878Z,99351.03
2022-11-21T10:13:01.285Z,99351.03
2022-11-21T10:14:27.996Z,99351.03
2022-11-21T10:16:00.636Z,99349.16
2022-11-21T10:17:22.884Z,99355.44
2022-11-21T10:18:35.765Z,99354.56
2022-11-21T10:20:09.173Z,99358.16
2022-11-21T10:21:43.495Z,99352.72
2022-11-21T10:23:00.521Z,99360.84
2022-11-21T10:24:40.818Z,99360.84
2022-11-21T10:25:52.250Z,99356.25
2022-11-21T10:26:59.333Z,99356.25
2022-11-21T10:28:45.550Z,99354.56
2022-11-21T10:30:01.960Z,99365.44
2022-11-21T10:31:08.957Z,99360.00
2022-11-21T10:32:21.855Z,99358.16
2022-11-21T10:33:34.911Z,99355.44
2022-11-21T10:34:39.551Z,99358.97
2022-11-21T10:35:50.532Z,99358.97
2022-11-21T10:36:59.020Z,99365.25
2022-11-21T10:38:03.066Z,99365.84
2022-11-21T10:39:20.144Z,99372.94
2022-11-21T10:40:37.632Z,99376.50
2022-11-21T10:42:12.987Z,99374.63
2022-11-21T10:44:03.549Z,99385.28
2022-11-21T10:45:17.643Z,99377.34
2022-11-21T10:46:20.238Z,99378.97
2022-11-21T10:47:27.805Z,99372.72
2022-11-21T10:48:30.269Z,99377.94
2022-11-21T10:49:34.488Z,99374.41
2022-11-21T10:51:10.669Z,99379.63
2022-11-21T10:52:20.115Z,99381.28
2022-11-21T10:53:42.994Z,99384.00
2022-11-21T10:55:03.542Z,99373.97
2022-11-21T10:56:07.570Z,99374.81
2022-11-21T10:57:12.410Z,99373.97
2022-11-21T10:58:19.574Z,99384.81
2022-11-21T10:59:30.741Z,99381.06
2022-11-21T11:00:33.335Z,99393.59
2022-11-21T11:01:35.812Z,99382.75
2022-11-21T11:02:39.154Z,99378.13
2022-11-21T11:03:41.545Z,99378.97
2022-11-21T11:04:49.039Z,99377.91
2022-11-21T11:05:59.587Z,99377.72
2022-11-21T11:07:27.130Z,99383.75
2022-11-21T11:08:31.966Z,99380.22
2022-11-21T11:09:35.903Z,99384.38
2022-11-21T11:10:39.334Z,99380.63
2022-11-21T11:11:41.524Z,99382.25
2022-11-21T11:13:30.764Z,99387.69
2022-11-21T11:14:33.153Z,99374.75
2022-11-21T11:15:39.354Z,99377.25
2022-11-21T11:16:46.994Z,99379.94
2022-11-21T11:17:59.743Z,99382.44
2022-11-21T11:19:24.189Z,99384.13
2022-11-21T11:20:45.177Z,99380.38
2022-11-21T11:21:47.850Z,99381.19
2022-11-21T11:22:50.121Z,99384.75
2022-11-21T11:23:55.051Z,99375.53
2022-11-21T11:25:00.395Z,99384.53
2022-11-21T11:26:03.232Z,99380.78
2022-11-21T11:27:05.453Z,99378.88
2022-11-21T11:28:09.332Z,99379.69
2022-11-21T11:29:22.960Z,99383.84
2022-11-21T11:30:26.835Z,99380.09
2022-11-21T11:31:40.860Z,99376.34
2022-11-21T11:32:43.334Z,99372.56
2022-11-21T11:33:54.557Z,99373.41
2022-11-21T11:35:06.378Z,99370.47
2022-11-21T11:36:38.068Z,99372.97
2022-11-21T11:37:42.606Z,99371.91
2022-11-21T11:38:53.627Z,99364.38
2022-11-21T11:40:23.326Z,99372.31
2022-11-21T11:42:16.395Z,99370.22
2022-11-21T11:44:08.552Z,99358.09
2022-11-21T11:45:32.149Z,99362.44
2022-11-21T11:47:10.528Z,99353.25
2022-11-21T11:48:12.741Z,99354.09
2022-11-21T11:50:09.607Z,99355.72
2022-11-21T11:51:38.042Z,99346.31
2022-11-21T11:52:57.747Z,99342.31
2022-11-21T11:54:07.474Z,99338.56
2022-11-21T11:55:19.784Z,99348.16
2022-11-21T11:56:47.263Z,99340.84
2022-11-21T11:57:54.834Z,99341.44
2022-11-21T11:59:20.833Z,99351.06
2022-11-21T12:00:23.238Z,99353.53
2022-11-21T12:01:38.278Z,99348.72
2022-11-21T12:03:04.187Z,99352.91
2022-11-21T12:04:18.955Z,99351.84
2022-11-21T12:05:26.433Z,99348.91
2022-11-21T12:07:10.648Z,99354.13
2022-11-21T12:10:04.462Z,99352.38
2022-11-21T12:11:35.652Z,99351.34
2022-11-21T12:12:55.109Z,99356.34
2022-11-21T12:14:01.676Z,99349.03
2022-11-21T12:15:37.372Z,99351.50
2022-11-21T12:16:41.559Z,99356.72
2022-11-21T12:17:51.936Z,99358.41
2022-11-21T12:19:10.943Z,99358.16
2022-11-21T12:20:30.507Z,99350.84
2022-11-21T12:21:32.783Z,99357.94
2022-11-21T12:22:35.016Z,99356.91
2022-11-21T12:23:49.029Z,99356.66
2022-11-21T12:24:51.753Z,99352.91
2022-11-21T12:26:09.842Z,99359.19
2022-11-21T12:27:40.524Z,99352.47
2022-11-21T12:29:04.445Z,99359.56
2022-11-21T12:30:24.051Z,99352.84
2022-11-21T12:32:05.904Z,99352.63
2022-11-21T12:33:30.072Z,99347.78
2022-11-21T12:35:09.671Z,99361.16
2022-11-21T12:36:22.427Z,99345.69
2022-11-21T12:37:36.217Z,99349.00
2022-11-21T12:38:53.674Z,99348.78
2022-11-21T12:40:06.631Z,99352.34
2022-11-21T12:41:51.466Z,99350.22
2022-11-21T12:43:18.374Z,99358.19
2022-11-21T12:44:39.991Z,99357.09
2022-11-21T12:45:58.345Z,99348.94
2022-11-21T12:47:05.098Z,99344.34
2022-11-21T12:49:00.756Z,99347.66
2022-11-21T12:50:39.161Z,99346.59
2022-11-21T12:52:08.972Z,99347.47
2022-11-21T12:54:09.007Z,99346.38
2022-11-21T12:55:41.097Z,99348.06
2022-11-21T12:56:52.117Z,99343.66
2022-11-21T12:58:04.992Z,99340.75
2022-11-21T12:59:15.274Z,99346.19
2022-11-21T13:00:26.328Z,99341.78
2022-11-21T13:01:42.473Z,99341.78
2022-11-21T13:02:54.781Z,99344.50
2022-11-21T13:04:05.208Z,99343.47
2022-11-21T13:05:14.000Z,99338.03
2022-11-21T13:06:29.229Z,99335.28